sensor_id;sensor_type;location;lat;lon;timestamp;P1;durP1;ratioP1;P2;durP2;ratioP2
61385;SDS011;47256;18.904;-99.054;2022-09-14T00:01:31;29.30;;;14.27;;
61385;SDS011;47256;18.904;-99.054;2022-09-14T00:04:07;28.83;;;14.57;;
61385;SDS011;47256;18.904;-99.054;2022-09-14T00:06:40;15.07;;;8.40;;
61385;SDS011;47256;18.904;-99.054;2022-09-14T00:09:15;12.52;;;7.50;;
61385;SDS011;47256;18.904;-99.054;2022-09-14T00:11:45;11.45;;;5.97;;
61385;SDS011;47256;18.904;-99.054;2022-09-14T00:14:16;10.95;;;6.43;;
61385;SDS011;47256;18.904;-99.054;2022-09-14T00:16:44;15.63;;;7.20;;
61385;SDS011;47256;18.904;-99.054;2022-09-14T00:19:16;9.70;;;6.47;;
61385;SDS011;47256;18.904;-99.054;2022-09-14T00:21:50;13.77;;;7.45;;
61385;SDS011;47256;18.904;-99.054;2022-09-14T00:24:21;11.95;;;6.93;;
61385;SDS011;47256;18.904;-99.054;2022-09-14T00:26:53;8.48;;;6.90;;
61385;SDS011;47256;18.904;-99.054;2022-09-14T00:29:23;13.20;;;7.30;;
61385;SDS011;47256;18.904;-99.054;2022-09-14T00:31:50;12.13;;;8.10;;
61385;SDS011;47256;18.904;-99.054;2022-09-14T00:34:18;14.90;;;8.93;;
61385;SDS011;47256;18.904;-99.054;2022-09-14T00:36:47;16.67;;;8.45;;
61385;SDS011;47256;18.904;-99.054;2022-09-14T00:39:16;13.55;;;8.05;;
61385;SDS011;47256;18.904;-99.054;2022-09-14T00:41:47;17.85;;;8.43;;
61385;SDS011;47256;18.904;-99.054;2022-09-14T00:46:47;9.68;;;8.38;;
61385;SDS011;47256;18.904;-99.054;2022-09-14T00:51:48;13.85;;;9.23;;
61385;SDS011;47256;18.904;-99.054;2022-09-14T00:54:23;14.30;;;9.55;;
61385;SDS011;47256;18.904;-99.054;2022-09-14T00:56:51;10.63;;;8.85;;
61385;SDS011;47256;18.904;-99.054;2022-09-14T00:59:28;17.38;;;10.23;;
61385;SDS011;47256;18.904;-99.054;2022-09-14T01:01:57;15.63;;;10.60;;
61385;SDS011;47256;18.904;-99.054;2022-09-14T01:04:28;11.25;;;9.45;;
61385;SDS011;47256;18.904;-99.054;2022-09-14T01:16:20;16.15;;;11.48;;
61385;SDS011;47256;18.904;-99.054;2022-09-14T01:18:57;17.70;;;12.07;;
61385;SDS011;47256;18.904;-99.054;2022-09-14T01:21:35;16.05;;;11.38;;
61385;SDS011;47256;18.904;-99.054;2022-09-14T01:24:15;17.55;;;11.50;;
61385;SDS011;47256;18.904;-99.054;2022-09-14T01:32:47;21.00;;;13.88;;
61385;SDS011;47256;18.904;-99.054;2022-09-14T01:43:13;20.58;;;15.88;;
61385;SDS011;47256;18.904;-99.054;2022-09-14T01:45:53;22.85;;;15.98;;
61385;SDS011;47256;18.904;-99.054;2022-09-14T01:48:51;22.95;;;14.40;;
61385;SDS011;47256;18.904;-99.054;2022-09-14T01:51:42;20.55;;;16.60;;
61385;SDS011;47256;18.904;-99.054;2022-09-14T01:54:32;27.38;;;16.55;;
61385;SDS011;47256;18.904;-99.054;2022-09-14T01:57:14;25.50;;;15.32;;
61385;SDS011;47256;18.904;-99.054;2022-09-14T01:59:50;30.90;;;15.35;;
61385;SDS011;47256;18.904;-99.054;2022-09-14T02:02:29;28.05;;;16.40;;
61385;SDS011;47256;18.904;-99.054;2022-09-14T02:05:08;21.00;;;15.10;;
61385;SDS011;47256;18.904;-99.054;2022-09-14T02:07:59;22.65;;;15.45;;
61385;SDS011;47256;18.904;-99.054;2022-09-14T02:10:31;26.52;;;16.23;;
61385;SDS011;47256;18.904;-99.054;2022-09-14T02:13:02;25.23;;;17.95;;
61385;SDS011;47256;18.904;-99.054;2022-09-14T02:15:34;25.42;;;17.33;;
61385;SDS011;47256;18.904;-99.054;2022-09-14T02:18:03;24.77;;;16.17;;
61385;SDS011;47256;18.904;-99.054;2022-09-14T02:20:40;29.35;;;16.75;;
61385;SDS011;47256;18.904;-99.054;2022-09-14T02:23:21;24.63;;;17.65;;
61385;SDS011;47256;18.904;-99.054;2022-09-14T02:25:48;32.08;;;20.67;;
61385;SDS011;47256;18.904;-99.054;2022-09-14T02:28:19;34.90;;;21.35;;
61385;SDS011;47256;18.904;-99.054;2022-09-14T02:31:02;34.78;;;20.85;;
61385;SDS011;47256;18.904;-99.054;2022-09-14T02:37:09;30.88;;;19.80;;
61385;SDS011;47256;18.904;-99.054;2022-09-14T02:42:58;25.55;;;20.05;;
61385;SDS011;47256;18.904;-99.054;2022-09-14T02:46:00;34.10;;;22.63;;
61385;SDS011;47256;18.904;-99.054;2022-09-14T02:48:58;31.13;;;21.05;;
61385;SDS011;47256;18.904;-99.054;2022-09-14T02:51:40;33.17;;;22.80;;
61385;SDS011;47256;18.904;-99.054;2022-09-14T02:54:16;35.40;;;21.88;;
61385;SDS011;47256;18.904;-99.054;2022-09-14T02:56:58;32.85;;;22.42;;
61385;SDS011;47256;18.904;-99.054;2022-09-14T02:59:28;45.95;;;25.05;;
61385;SDS011;47256;18.904;-99.054;2022-09-14T03:01:57;23.67;;;18.02;;
61385;SDS011;47256;18.904;-99.054;2022-09-14T03:04:28;23.10;;;16.02;;
61385;SDS011;47256;18.904;-99.054;2022-09-14T03:06:58;24.88;;;14.85;;
61385;SDS011;47256;18.904;-99.054;2022-09-14T03:09:28;24.38;;;14.55;;
61385;SDS011;47256;18.904;-99.054;2022-09-14T03:11:56;26.80;;;14.32;;
61385;SDS011;47256;18.904;-99.054;2022-09-14T03:14:24;17.58;;;13.07;;
61385;SDS011;47256;18.904;-99.054;2022-09-14T03:16:52;17.55;;;13.32;;
61385;SDS011;47256;18.904;-99.054;2022-09-14T03:19:22;20.98;;;15.27;;
61385;SDS011;47256;18.904;-99.054;2022-09-14T03:21:50;20.35;;;14.90;;
61385;SDS011;47256;18.904;-99.054;2022-09-14T03:24:19;22.02;;;15.15;;
61385;SDS011;47256;18.904;-99.054;2022-09-14T03:26:47;24.90;;;16.40;;
61385;SDS011;47256;18.904;-99.054;2022-09-14T03:29:19;27.33;;;16.75;;
61385;SDS011;47256;18.904;-99.054;2022-09-14T03:31:47;24.50;;;17.60;;
61385;SDS011;47256;18.904;-99.054;2022-09-14T03:34:15;22.80;;;15.75;;
61385;SDS011;47256;18.904;-99.054;2022-09-14T03:36:43;24.77;;;16.33;;
61385;SDS011;47256;18.904;-99.054;2022-09-14T03:39:11;19.55;;;16.58;;
61385;SDS011;47256;18.904;-99.054;2022-09-14T03:41:39;18.67;;;15.30;;
61385;SDS011;47256;18.904;-99.054;2022-09-14T03:44:07;23.90;;;16.98;;
61385;SDS011;47256;18.904;-99.054;2022-09-14T03:46:35;18.70;;;16.10;;
61385;SDS011;47256;18.904;-99.054;2022-09-14T03:49:04;22.58;;;14.95;;
61385;SDS011;47256;18.904;-99.054;2022-09-14T03:51:32;27.85;;;15.95;;
61385;SDS011;47256;18.904;-99.054;2022-09-14T03:54:00;25.67;;;16.45;;
61385;SDS011;47256;18.904;-99.054;2022-09-14T03:56:27;22.73;;;16.63;;
61385;SDS011;47256;18.904;-99.054;2022-09-14T03:58:55;23.48;;;16.40;;
61385;SDS011;47256;18.904;-99.054;2022-09-14T04:01:24;29.25;;;17.63;;
61385;SDS011;47256;18.904;-99.054;2022-09-14T04:03:51;19.77;;;17.17;;
61385;SDS011;47256;18.904;-99.054;2022-09-14T04:06:19;25.27;;;16.13;;
61385;SDS011;47256;18.904;-99.054;2022-09-14T04:08:47;19.60;;;16.92;;
61385;SDS011;47256;18.904;-99.054;2022-09-14T04:11:15;18.77;;;16.45;;
61385;SDS011;47256;18.904;-99.054;2022-09-14T04:13:47;22.85;;;14.90;;
61385;SDS011;47256;18.904;-99.054;2022-09-14T04:16:15;22.85;;;15.93;;
61385;SDS011;47256;18.904;-99.054;2022-09-14T04:18:45;19.88;;;14.48;;
61385;SDS011;47256;18.904;-99.054;2022-09-14T04:21:14;18.58;;;13.95;;
61385;SDS011;47256;18.904;-99.054;2022-09-14T04:23:43;16.95;;;12.80;;
61385;SDS011;47256;18.904;-99.054;2022-09-14T04:26:11;20.63;;;15.02;;
61385;SDS011;47256;18.904;-99.054;2022-09-14T04:28:43;15.60;;;12.98;;
61385;SDS011;47256;18.904;-99.054;2022-09-14T04:31:11;19.17;;;13.73;;
61385;SDS011;47256;18.904;-99.054;2022-09-14T04:33:40;16.88;;;13.07;;
61385;SDS011;47256;18.904;-99.054;2022-09-14T04:36:10;19.85;;;13.00;;
61385;SDS011;47256;18.904;-99.054;2022-09-14T04:38:41;19.17;;;12.88;;
61385;SDS011;47256;18.904;-99.054;2022-09-14T04:41:09;16.75;;;14.13;;
61385;SDS011;47256;18.904;-99.054;2022-09-14T04:43:41;16.35;;;13.15;;
61385;SDS011;47256;18.904;-99.054;2022-09-14T04:46:10;19.40;;;15.85;;
61385;SDS011;47256;18.904;-99.054;2022-09-14T04:48:46;25.83;;;16.20;;
61385;SDS011;47256;18.904;-99.054;2022-09-14T04:51:16;19.90;;;15.30;;
61385;SDS011;47256;18.904;-99.054;2022-09-14T04:53:45;20.00;;;15.10;;
61385;SDS011;47256;18.904;-99.054;2022-09-14T04:56:18;24.35;;;14.98;;
61385;SDS011;47256;18.904;-99.054;2022-09-14T04:58:51;15.82;;;14.18;;
61385;SDS011;47256;18.904;-99.054;2022-09-14T05:01:21;18.83;;;15.55;;
61385;SDS011;47256;18.904;-99.054;2022-09-14T05:03:50;17.40;;;15.20;;
61385;SDS011;47256;18.904;-99.054;2022-09-14T05:06:23;19.40;;;14.65;;
61385;SDS011;47256;18.904;-99.054;2022-09-14T05:08:55;20.15;;;15.13;;
61385;SDS011;47256;18.904;-99.054;2022-09-14T05:11:27;22.45;;;14.77;;
61385;SDS011;47256;18.904;-99.054;2022-09-14T05:13:56;20.65;;;15.77;;
61385;SDS011;47256;18.904;-99.054;2022-09-14T05:16:28;22.63;;;14.68;;
61385;SDS011;47256;18.904;-99.054;2022-09-14T05:18:58;19.13;;;15.20;;
61385;SDS011;47256;18.904;-99.054;2022-09-14T05:21:29;22.08;;;15.90;;
61385;SDS011;47256;18.904;-99.054;2022-09-14T05:23:58;25.40;;;16.00;;
61385;SDS011;47256;18.904;-99.054;2022-09-14T05:26:28;19.75;;;16.02;;
61385;SDS011;47256;18.904;-99.054;2022-09-14T05:28:57;19.17;;;14.55;;
61385;SDS011;47256;18.904;-99.054;2022-09-14T05:31:27;20.55;;;16.27;;
61385;SDS011;47256;18.904;-99.054;2022-09-14T05:33:57;19.73;;;16.00;;
61385;SDS011;47256;18.904;-99.054;2022-09-14T05:36:25;19.98;;;15.98;;
61385;SDS011;47256;18.904;-99.054;2022-09-14T05:38:52;20.83;;;15.63;;
61385;SDS011;47256;18.904;-99.054;2022-09-14T05:41:20;19.23;;;15.35;;
61385;SDS011;47256;18.904;-99.054;2022-09-14T05:43:47;21.50;;;16.23;;
61385;SDS011;47256;18.904;-99.054;2022-09-14T05:46:17;30.85;;;15.98;;
61385;SDS011;47256;18.904;-99.054;2022-09-14T05:48:46;22.83;;;14.95;;
61385;SDS011;47256;18.904;-99.054;2022-09-14T05:51:18;22.25;;;11.73;;
61385;SDS011;47256;18.904;-99.054;2022-09-14T05:53:51;15.95;;;11.10;;
61385;SDS011;47256;18.904;-99.054;2022-09-14T05:56:22;16.90;;;11.05;;
61385;SDS011;47256;18.904;-99.054;2022-09-14T05:58:50;17.27;;;10.35;;
61385;SDS011;47256;18.904;-99.054;2022-09-14T06:01:25;13.90;;;10.75;;
61385;SDS011;47256;18.904;-99.054;2022-09-14T06:03:58;13.90;;;10.32;;
61385;SDS011;47256;18.904;-99.054;2022-09-14T06:06:27;20.13;;;11.90;;
61385;SDS011;47256;18.904;-99.054;2022-09-14T06:08:57;16.98;;;12.93;;
61385;SDS011;47256;18.904;-99.054;2022-09-14T06:11:27;15.60;;;12.30;;
61385;SDS011;47256;18.904;-99.054;2022-09-14T06:13:57;18.20;;;12.57;;
61385;SDS011;47256;18.904;-99.054;2022-09-14T06:16:26;20.60;;;12.63;;
61385;SDS011;47256;18.904;-99.054;2022-09-14T06:18:55;18.48;;;12.30;;
61385;SDS011;47256;18.904;-99.054;2022-09-14T06:21:27;15.55;;;11.98;;
61385;SDS011;47256;18.904;-99.054;2022-09-14T06:23:58;17.10;;;11.52;;
61385;SDS011;47256;18.904;-99.054;2022-09-14T06:26:27;12.95;;;9.98;;
61385;SDS011;47256;18.904;-99.054;2022-09-14T06:28:54;27.17;;;11.38;;
61385;SDS011;47256;18.904;-99.054;2022-09-14T06:31:22;13.30;;;10.13;;
61385;SDS011;47256;18.904;-99.054;2022-09-14T06:33:51;11.65;;;9.68;;
61385;SDS011;47256;18.904;-99.054;2022-09-14T06:36:21;15.68;;;10.23;;
61385;SDS011;47256;18.904;-99.054;2022-09-14T06:38:49;15.07;;;10.98;;
61385;SDS011;47256;18.904;-99.054;2022-09-14T06:41:19;12.35;;;10.20;;
61385;SDS011;47256;18.904;-99.054;2022-09-14T06:43:49;12.82;;;10.35;;
61385;SDS011;47256;18.904;-99.054;2022-09-14T06:46:21;14.50;;;11.27;;
61385;SDS011;47256;18.904;-99.054;2022-09-14T06:48:51;12.30;;;10.45;;
61385;SDS011;47256;18.904;-99.054;2022-09-14T06:51:24;14.85;;;10.70;;
61385;SDS011;47256;18.904;-99.054;2022-09-14T06:53:54;12.00;;;10.35;;
61385;SDS011;47256;18.904;-99.054;2022-09-14T06:56:33;15.77;;;11.35;;
61385;SDS011;47256;18.904;-99.054;2022-09-14T06:59:03;15.70;;;10.73;;
61385;SDS011;47256;18.904;-99.054;2022-09-14T07:01:34;16.95;;;10.65;;
61385;SDS011;47256;18.904;-99.054;2022-09-14T07:04:02;12.15;;;9.93;;
61385;SDS011;47256;18.904;-99.054;2022-09-14T07:06:32;15.13;;;10.85;;
61385;SDS011;47256;18.904;-99.054;2022-09-14T07:09:10;20.48;;;12.02;;
61385;SDS011;47256;18.904;-99.054;2022-09-14T07:11:38;17.27;;;11.15;;
61385;SDS011;47256;18.904;-99.054;2022-09-14T07:14:07;16.38;;;12.27;;
61385;SDS011;47256;18.904;-99.054;2022-09-14T07:16:35;20.15;;;11.82;;
61385;SDS011;47256;18.904;-99.054;2022-09-14T07:19:06;16.02;;;11.65;;
61385;SDS011;47256;18.904;-99.054;2022-09-14T07:21:37;20.10;;;12.98;;
61385;SDS011;47256;18.904;-99.054;2022-09-14T07:24:04;18.20;;;12.00;;
61385;SDS011;47256;18.904;-99.054;2022-09-14T07:26:34;21.73;;;12.95;;
61385;SDS011;47256;18.904;-99.054;2022-09-14T07:29:12;20.58;;;12.40;;
61385;SDS011;47256;18.904;-99.054;2022-09-14T07:34:13;23.77;;;13.93;;
61385;SDS011;47256;18.904;-99.054;2022-09-14T07:36:41;16.55;;;13.63;;
61385;SDS011;47256;18.904;-99.054;2022-09-14T07:39:11;17.67;;;13.35;;
61385;SDS011;47256;18.904;-99.054;2022-09-14T07:41:40;21.05;;;14.15;;
61385;SDS011;47256;18.904;-99.054;2022-09-14T07:44:08;15.45;;;12.45;;
61385;SDS011;47256;18.904;-99.054;2022-09-14T07:46:39;26.27;;;14.88;;
61385;SDS011;47256;18.904;-99.054;2022-09-14T07:49:09;24.25;;;15.70;;
61385;SDS011;47256;18.904;-99.054;2022-09-14T07:51:38;25.27;;;17.20;;
61385;SDS011;47256;18.904;-99.054;2022-09-14T07:54:05;39.92;;;20.50;;
61385;SDS011;47256;18.904;-99.054;2022-09-14T07:56:35;49.97;;;22.10;;
61385;SDS011;47256;18.904;-99.054;2022-09-14T07:59:03;17.58;;;14.73;;
61385;SDS011;47256;18.904;-99.054;2022-09-14T08:01:32;17.15;;;13.50;;
61385;SDS011;47256;18.904;-99.054;2022-09-14T08:04:00;15.55;;;11.80;;
61385;SDS011;47256;18.904;-99.054;2022-09-14T08:06:27;15.40;;;12.98;;
61385;SDS011;47256;18.904;-99.054;2022-09-14T08:09:03;17.00;;;13.65;;
61385;SDS011;47256;18.904;-99.054;2022-09-14T08:11:36;19.70;;;13.73;;
61385;SDS011;47256;18.904;-99.054;2022-09-14T08:14:04;18.23;;;13.70;;
61385;SDS011;47256;18.904;-99.054;2022-09-14T08:16:36;20.45;;;13.23;;
61385;SDS011;47256;18.904;-99.054;2022-09-14T08:19:10;20.17;;;12.45;;
61385;SDS011;47256;18.904;-99.054;2022-09-14T08:21:41;19.75;;;13.20;;
61385;SDS011;47256;18.904;-99.054;2022-09-14T08:24:13;18.02;;;13.52;;
61385;SDS011;47256;18.904;-99.054;2022-09-14T08:26:43;14.95;;;12.00;;
61385;SDS011;47256;18.904;-99.054;2022-09-14T08:29:11;16.42;;;11.88;;
61385;SDS011;47256;18.904;-99.054;2022-09-14T08:31:41;15.77;;;12.88;;
61385;SDS011;47256;18.904;-99.054;2022-09-14T08:34:10;17.73;;;12.40;;
61385;SDS011;47256;18.904;-99.054;2022-09-14T08:36:38;16.27;;;12.23;;
61385;SDS011;47256;18.904;-99.054;2022-09-14T08:39:08;15.75;;;12.05;;
61385;SDS011;47256;18.904;-99.054;2022-09-14T08:46:40;18.08;;;12.95;;
61385;SDS011;47256;18.904;-99.054;2022-09-14T08:52:31;19.95;;;12.38;;
61385;SDS011;47256;18.904;-99.054;2022-09-14T08:58:20;19.08;;;13.23;;
61385;SDS011;47256;18.904;-99.054;2022-09-14T09:00:53;15.77;;;13.13;;
61385;SDS011;47256;18.904;-99.054;2022-09-14T09:03:32;17.83;;;13.38;;
61385;SDS011;47256;18.904;-99.054;2022-09-14T09:06:16;20.60;;;13.70;;
61385;SDS011;47256;18.904;-99.054;2022-09-14T09:11:39;18.55;;;13.85;;
61385;SDS011;47256;18.904;-99.054;2022-09-14T09:14:16;16.67;;;13.55;;
61385;SDS011;47256;18.904;-99.054;2022-09-14T09:17:09;19.55;;;13.98;;
61385;SDS011;47256;18.904;-99.054;2022-09-14T09:19:43;18.85;;;14.02;;
61385;SDS011;47256;18.904;-99.054;2022-09-14T09:22:16;17.45;;;12.90;;
61385;SDS011;47256;18.904;-99.054;2022-09-14T09:24:51;19.33;;;14.80;;
61385;SDS011;47256;18.904;-99.054;2022-09-14T09:27:20;22.27;;;14.30;;
61385;SDS011;47256;18.904;-99.054;2022-09-14T09:29:49;25.10;;;14.88;;
61385;SDS011;47256;18.904;-99.054;2022-09-14T09:32:17;17.30;;;14.30;;
61385;SDS011;47256;18.904;-99.054;2022-09-14T09:35:29;21.13;;;13.27;;
61385;SDS011;47256;18.904;-99.054;2022-09-14T09:38:12;17.77;;;14.13;;
61385;SDS011;47256;18.904;-99.054;2022-09-14T09:40:46;21.08;;;13.90;;
61385;SDS011;47256;18.904;-99.054;2022-09-14T09:43:19;19.88;;;13.70;;
61385;SDS011;47256;18.904;-99.054;2022-09-14T09:45:54;19.65;;;14.02;;
61385;SDS011;47256;18.904;-99.054;2022-09-14T09:48:28;22.65;;;16.10;;
61385;SDS011;47256;18.904;-99.054;2022-09-14T09:51:09;26.67;;;16.88;;
61385;SDS011;47256;18.904;-99.054;2022-09-14T09:54:15;28.67;;;15.63;;
61385;SDS011;47256;18.904;-99.054;2022-09-14T09:59:48;27.00;;;16.40;;
61385;SDS011;47256;18.904;-99.054;2022-09-14T10:10:38;19.50;;;14.52;;
61385;SDS011;47256;18.904;-99.054;2022-09-14T10:13:53;18.35;;;15.15;;
61385;SDS011;47256;18.904;-99.054;2022-09-14T10:16:07;22.88;;;15.15;;
61385;SDS011;47256;18.904;-99.054;2022-09-14T10:18:51;18.02;;;13.98;;
61385;SDS011;47256;18.904;-99.054;2022-09-14T10:21:22;19.88;;;14.73;;
61385;SDS011;47256;18.904;-99.054;2022-09-14T10:24:04;19.90;;;14.20;;
61385;SDS011;47256;18.904;-99.054;2022-09-14T10:26:43;22.15;;;16.10;;
61385;SDS011;47256;18.904;-99.054;2022-09-14T10:29:23;20.23;;;14.38;;
61385;SDS011;47256;18.904;-99.054;2022-09-14T10:32:14;21.42;;;15.25;;
61385;SDS011;47256;18.904;-99.054;2022-09-14T10:34:49;20.85;;;14.05;;
61385;SDS011;47256;18.904;-99.054;2022-09-14T10:40:06;20.27;;;13.27;;
61385;SDS011;47256;18.904;-99.054;2022-09-14T10:59:52;23.05;;;14.88;;
61385;SDS011;47256;18.904;-99.054;2022-09-14T11:10:43;20.65;;;15.13;;
61385;SDS011;47256;18.904;-99.054;2022-09-14T11:16:16;21.33;;;15.07;;
61385;SDS011;47256;18.904;-99.054;2022-09-14T11:18:55;22.70;;;15.05;;
61385;SDS011;47256;18.904;-99.054;2022-09-14T11:21:49;21.42;;;14.60;;
61385;SDS011;47256;18.904;-99.054;2022-09-14T11:24:42;18.98;;;15.98;;
61385;SDS011;47256;18.904;-99.054;2022-09-14T11:32:41;27.15;;;16.70;;
61385;SDS011;47256;18.904;-99.054;2022-09-14T11:38:16;23.33;;;16.23;;
61385;SDS011;47256;18.904;-99.054;2022-09-14T11:44:22;20.05;;;15.40;;
61385;SDS011;47256;18.904;-99.054;2022-09-14T11:47:14;28.02;;;15.38;;
61385;SDS011;47256;18.904;-99.054;2022-09-14T11:50:01;24.13;;;15.85;;
61385;SDS011;47256;18.904;-99.054;2022-09-14T11:55:49;22.33;;;15.07;;
61385;SDS011;47256;18.904;-99.054;2022-09-14T11:58:24;25.33;;;15.90;;
61385;SDS011;47256;18.904;-99.054;2022-09-14T12:11:50;19.38;;;15.18;;
61385;SDS011;47256;18.904;-99.054;2022-09-14T12:19:57;24.92;;;16.95;;
61385;SDS011;47256;18.904;-99.054;2022-09-14T12:22:47;23.67;;;15.85;;
61385;SDS011;47256;18.904;-99.054;2022-09-14T12:25:18;28.30;;;15.82;;
61385;SDS011;47256;18.904;-99.054;2022-09-14T12:27:50;29.13;;;16.02;;
61385;SDS011;47256;18.904;-99.054;2022-09-14T12:36:08;24.17;;;15.52;;
61385;SDS011;47256;18.904;-99.054;2022-09-14T12:38:38;22.65;;;16.40;;
61385;SDS011;47256;18.904;-99.054;2022-09-14T13:05:42;24.70;;;17.35;;
61385;SDS011;47256;18.904;-99.054;2022-09-14T13:08:11;26.48;;;16.55;;
61385;SDS011;47256;18.904;-99.054;2022-09-14T13:10:45;27.48;;;16.38;;
61385;SDS011;47256;18.904;-99.054;2022-09-14T13:13:21;20.60;;;14.88;;
61385;SDS011;47256;18.904;-99.054;2022-09-14T13:16:00;27.08;;;16.80;;
61385;SDS011;47256;18.904;-99.054;2022-09-14T13:18:33;32.42;;;15.07;;
61385;SDS011;47256;18.904;-99.054;2022-09-14T13:21:19;29.35;;;14.13;;
61385;SDS011;47256;18.904;-99.054;2022-09-14T13:26:22;25.63;;;15.05;;
61385;SDS011;47256;18.904;-99.054;2022-09-14T13:28:58;21.27;;;15.05;;
61385;SDS011;47256;18.904;-99.054;2022-09-14T13:31:29;17.63;;;14.40;;
61385;SDS011;47256;18.904;-99.054;2022-09-14T13:33:59;19.13;;;14.88;;
61385;SDS011;47256;18.904;-99.054;2022-09-14T13:36:29;21.17;;;16.23;;
61385;SDS011;47256;18.904;-99.054;2022-09-14T13:39:03;23.77;;;17.52;;
61385;SDS011;47256;18.904;-99.054;2022-09-14T13:44:10;22.50;;;17.05;;
61385;SDS011;47256;18.904;-99.054;2022-09-14T13:46:38;27.77;;;15.75;;
61385;SDS011;47256;18.904;-99.054;2022-09-14T13:49:06;28.42;;;16.83;;
61385;SDS011;47256;18.904;-99.054;2022-09-14T13:51:34;25.35;;;15.90;;
61385;SDS011;47256;18.904;-99.054;2022-09-14T13:54:46;26.00;;;16.40;;
61385;SDS011;47256;18.904;-99.054;2022-09-14T13:57:11;27.92;;;16.02;;
61385;SDS011;47256;18.904;-99.054;2022-09-14T14:02:58;28.88;;;17.10;;
61385;SDS011;47256;18.904;-99.054;2022-09-14T14:05:30;28.65;;;18.15;;
61385;SDS011;47256;18.904;-99.054;2022-09-14T14:08:23;28.30;;;16.30;;
61385;SDS011;47256;18.904;-99.054;2022-09-14T14:10:58;24.75;;;17.23;;
61385;SDS011;47256;18.904;-99.054;2022-09-14T14:13:28;26.00;;;18.95;;
61385;SDS011;47256;18.904;-99.054;2022-09-14T14:16:19;31.45;;;19.67;;
61385;SDS011;47256;18.904;-99.054;2022-09-14T14:18:53;26.38;;;18.67;;
61385;SDS011;47256;18.904;-99.054;2022-09-14T14:21:30;27.67;;;18.13;;
61385;SDS011;47256;18.904;-99.054;2022-09-14T14:26:52;25.17;;;18.60;;
61385;SDS011;47256;18.904;-99.054;2022-09-14T14:29:20;27.70;;;18.20;;
61385;SDS011;47256;18.904;-99.054;2022-09-14T14:31:48;25.55;;;19.35;;
61385;SDS011;47256;18.904;-99.054;2022-09-14T14:34:19;31.40;;;20.25;;
61385;SDS011;47256;18.904;-99.054;2022-09-14T14:36:57;25.45;;;18.70;;
61385;SDS011;47256;18.904;-99.054;2022-09-14T14:39:27;22.35;;;18.48;;
61385;SDS011;47256;18.904;-99.054;2022-09-14T14:42:01;25.63;;;19.20;;
61385;SDS011;47256;18.904;-99.054;2022-09-14T14:44:30;24.27;;;19.20;;
61385;SDS011;47256;18.904;-99.054;2022-09-14T14:46:58;25.35;;;18.65;;
61385;SDS011;47256;18.904;-99.054;2022-09-14T14:49:26;23.70;;;19.88;;
61385;SDS011;47256;18.904;-99.054;2022-09-14T14:51:53;24.00;;;19.65;;
61385;SDS011;47256;18.904;-99.054;2022-09-14T14:54:23;27.58;;;19.52;;
61385;SDS011;47256;18.904;-99.054;2022-09-14T14:56:53;25.10;;;18.45;;
61385;SDS011;47256;18.904;-99.054;2022-09-14T15:01:51;27.02;;;18.55;;
61385;SDS011;47256;18.904;-99.054;2022-09-14T15:04:19;28.23;;;20.23;;
61385;SDS011;47256;18.904;-99.054;2022-09-14T15:06:47;24.27;;;18.98;;
61385;SDS011;47256;18.904;-99.054;2022-09-14T15:09:16;24.77;;;18.10;;
61385;SDS011;47256;18.904;-99.054;2022-09-14T15:11:46;30.45;;;20.52;;
61385;SDS011;47256;18.904;-99.054;2022-09-14T15:14:14;32.47;;;18.77;;
61385;SDS011;47256;18.904;-99.054;2022-09-14T15:16:44;26.08;;;19.20;;
61385;SDS011;47256;18.904;-99.054;2022-09-14T15:19:12;25.17;;;18.60;;
61385;SDS011;47256;18.904;-99.054;2022-09-14T15:21:40;22.60;;;17.98;;
61385;SDS011;47256;18.904;-99.054;2022-09-14T15:24:09;30.27;;;17.38;;
61385;SDS011;47256;18.904;-99.054;2022-09-14T15:26:37;22.48;;;17.17;;
61385;SDS011;47256;18.904;-99.054;2022-09-14T15:29:04;21.70;;;18.08;;
61385;SDS011;47256;18.904;-99.054;2022-09-14T15:31:33;26.48;;;17.48;;
61385;SDS011;47256;18.904;-99.054;2022-09-14T15:34:00;23.33;;;16.85;;
61385;SDS011;47256;18.904;-99.054;2022-09-14T15:36:34;21.02;;;16.15;;
61385;SDS011;47256;18.904;-99.054;2022-09-14T15:39:08;17.27;;;14.75;;
61385;SDS011;47256;18.904;-99.054;2022-09-14T15:41:41;25.55;;;17.58;;
61385;SDS011;47256;18.904;-99.054;2022-09-14T15:44:09;22.63;;;17.20;;
61385;SDS011;47256;18.904;-99.054;2022-09-14T15:46:37;25.48;;;16.67;;
61385;SDS011;47256;18.904;-99.054;2022-09-14T15:49:12;21.15;;;16.77;;
61385;SDS011;47256;18.904;-99.054;2022-09-14T15:51:46;21.83;;;17.23;;
61385;SDS011;47256;18.904;-99.054;2022-09-14T15:54:15;19.67;;;17.40;;
61385;SDS011;47256;18.904;-99.054;2022-09-14T15:56:55;27.67;;;19.52;;
61385;SDS011;47256;18.904;-99.054;2022-09-14T15:59:25;25.77;;;18.75;;
61385;SDS011;47256;18.904;-99.054;2022-09-14T16:01:55;22.35;;;18.00;;
61385;SDS011;47256;18.904;-99.054;2022-09-14T16:04:23;21.63;;;18.08;;
61385;SDS011;47256;18.904;-99.054;2022-09-14T16:06:50;23.38;;;16.65;;
61385;SDS011;47256;18.904;-99.054;2022-09-14T16:09:19;19.92;;;15.00;;
61385;SDS011;47256;18.904;-99.054;2022-09-14T16:11:47;20.52;;;15.40;;
61385;SDS011;47256;18.904;-99.054;2022-09-14T16:14:14;16.02;;;13.50;;
61385;SDS011;47256;18.904;-99.054;2022-09-14T16:16:43;18.05;;;14.52;;
61385;SDS011;47256;18.904;-99.054;2022-09-14T16:19:10;17.48;;;13.68;;
61385;SDS011;47256;18.904;-99.054;2022-09-14T16:21:39;20.52;;;16.20;;
61385;SDS011;47256;18.904;-99.054;2022-09-14T16:24:12;20.23;;;14.98;;
61385;SDS011;47256;18.904;-99.054;2022-09-14T16:26:44;17.13;;;13.55;;
61385;SDS011;47256;18.904;-99.054;2022-09-14T16:29:12;17.45;;;13.18;;
61385;SDS011;47256;18.904;-99.054;2022-09-14T16:31:41;14.73;;;13.13;;
61385;SDS011;47256;18.904;-99.054;2022-09-14T16:34:29;23.15;;;14.80;;
61385;SDS011;47256;18.904;-99.054;2022-09-14T16:36:58;18.13;;;12.88;;
61385;SDS011;47256;18.904;-99.054;2022-09-14T16:39:26;15.60;;;11.50;;
61385;SDS011;47256;18.904;-99.054;2022-09-14T16:42:00;16.85;;;12.48;;
61385;SDS011;47256;18.904;-99.054;2022-09-14T16:44:27;14.98;;;10.88;;
61385;SDS011;47256;18.904;-99.054;2022-09-14T16:46:56;15.18;;;11.10;;
61385;SDS011;47256;18.904;-99.054;2022-09-14T16:49:24;14.98;;;12.68;;
61385;SDS011;47256;18.904;-99.054;2022-09-14T16:51:52;13.23;;;10.70;;
61385;SDS011;47256;18.904;-99.054;2022-09-14T16:54:20;9.35;;;8.45;;
61385;SDS011;47256;18.904;-99.054;2022-09-14T16:56:49;13.20;;;11.00;;
61385;SDS011;47256;18.904;-99.054;2022-09-14T16:59:16;14.23;;;11.55;;
61385;SDS011;47256;18.904;-99.054;2022-09-14T17:01:45;16.27;;;11.35;;
61385;SDS011;47256;18.904;-99.054;2022-09-14T17:04:15;13.88;;;11.98;;
61385;SDS011;47256;18.904;-99.054;2022-09-14T17:06:46;12.10;;;10.75;;
61385;SDS011;47256;18.904;-99.054;2022-09-14T17:09:19;13.68;;;10.98;;
61385;SDS011;47256;18.904;-99.054;2022-09-14T17:11:50;16.85;;;10.00;;
61385;SDS011;47256;18.904;-99.054;2022-09-14T17:14:20;15.65;;;12.05;;
61385;SDS011;47256;18.904;-99.054;2022-09-14T17:16:51;18.83;;;11.38;;
61385;SDS011;47256;18.904;-99.054;2022-09-14T17:19:19;15.52;;;11.32;;